Glenda Meredith — A8TX2 — position and weather

sailwx.info

Track history (hours):
 
Tides and Currents Weather Stations Pressure Air Temp Water Temp Dewpoint Dewpoint Depression Visibility Wind Speed Wind Dir Waves Ship Positions

Glenda Meredith

Last reported at 2017-Feb-06 18:23 UTC. Time now 2017-Feb-19 18:57 UTC.
Position N 09°13' W 079°55'.
Warning: this ship's position is 13 days out of date.

Length 182 m; draft 11.7 m.

Type: Tanker. MMSI: 636014450.

Date/timePositionNaut miles runAvg speedWind from/ knotsBaromVisibWave heightAir tempDewpointWater temp
2017-Feb-06 18:23N 09°13' W 079°55'4 4.5
2017-Feb-06 17:33N 09°16' W 079°55'0 0.4
2017-Feb-06 16:34N 09°17' W 079°55'0 0.2
2017-Feb-06 15:34N 09°17' W 079°55'2 2.4
2017-Feb-06 14:33N 09°19' W 079°55'5 5.4
2017-Feb-06 13:33N 09°25' W 079°55'2 2.2
2017-Feb-06 12:33N 09°27' W 079°56'0 0.0
2017-Feb-06 11:30N 09°27' W 079°56'0 0.0
2017-Feb-06 10:33N 09°27' W 079°56'0 0.0
2017-Feb-06 09:27N 09°27' W 079°56'0 0.0
2017-Feb-06 08:33N 09°27' W 079°56'0 0.0
2017-Feb-06 07:30N 09°27' W 079°56'0 0.0
2017-Feb-06 06:21N 09°27' W 079°56'0 0.1
2017-Feb-06 05:30N 09°27' W 079°56'0 0.0
2017-Feb-06 04:24N 09°27' W 079°56'0 0.0
2017-Feb-06 03:33N 09°27' W 079°56'0 0.0
2017-Feb-06 02:34N 09°27' W 079°56'0 0.1
2017-Feb-06 01:29N 09°27' W 079°56'  
2017-Jan-31 15:33N 29°29' W 094°52'1010.2
2017-Jan-31 14:33N 29°38' W 094°58'7 7.3
2017-Jan-31 13:33N 29°44' W 095°02'5 4.7
2017-Jan-31 12:25N 29°44' W 095°08'  
2017-Jan-29 06:33N 29°44' W 095°09'5 5.0
2017-Jan-29 05:34N 29°45' W 095°04'7 7.0
2017-Jan-29 04:32N 29°40' W 094°58'1111.0
2017-Jan-29 03:33N 29°30' W 094°52'  
Track history (hours):
 
Tides and Currents Weather Stations Pressure Air Temp Water Temp Dewpoint Dewpoint Depression Visibility Wind Speed Wind Dir Waves Ship Positions

Glenda Meredith

Last reported at 2017-Feb-06 18:23 UTC. Time now 2017-Feb-19 18:57 UTC.
Position N 09°13' W 079°55'.
Warning: this ship's position is 13 days out of date.

Length 182 m; draft 11.7 m.

Type: Tanker. MMSI: 636014450.

Date/timePositionNaut miles runAvg speedWind from/ knotsBaromVisibWave heightAir tempDewpointWater temp
2017-Feb-06 18:23N 09°13' W 079°55'4 4.5
2017-Feb-06 17:33N 09°16' W 079°55'0 0.4
2017-Feb-06 16:34N 09°17' W 079°55'0 0.2
2017-Feb-06 15:34N 09°17' W 079°55'2 2.4
2017-Feb-06 14:33N 09°19' W 079°55'5 5.4
2017-Feb-06 13:33N 09°25' W 079°55'2 2.2
2017-Feb-06 12:33N 09°27' W 079°56'0 0.0
2017-Feb-06 11:30N 09°27' W 079°56'0 0.0
2017-Feb-06 10:33N 09°27' W 079°56'0 0.0
2017-Feb-06 09:27N 09°27' W 079°56'0 0.0
2017-Feb-06 08:33N 09°27' W 079°56'0 0.0
2017-Feb-06 07:30N 09°27' W 079°56'0 0.0
2017-Feb-06 06:21N 09°27' W 079°56'0 0.1
2017-Feb-06 05:30N 09°27' W 079°56'0 0.0
2017-Feb-06 04:24N 09°27' W 079°56'0 0.0
2017-Feb-06 03:33N 09°27' W 079°56'0 0.0
2017-Feb-06 02:34N 09°27' W 079°56'0 0.1
2017-Feb-06 01:29N 09°27' W 079°56'  
2017-Jan-31 15:33N 29°29' W 094°52'1010.2
2017-Jan-31 14:33N 29°38' W 094°58'7 7.3
2017-Jan-31 13:33N 29°44' W 095°02'5 4.7
2017-Jan-31 12:25N 29°44' W 095°08'  
2017-Jan-29 06:33N 29°44' W 095°09'5 5.0
2017-Jan-29 05:34N 29°45' W 095°04'7 7.0
2017-Jan-29 04:32N 29°40' W 094°58'1111.0
2017-Jan-29 03:33N 29°30' W 094°52'  

Dump ship's entire track history